Time;durP1;ratioP1;P1;durP2;ratioP2;P2;SDS_P1;SDS_P2;PMS_P1;PMS_P2;Temp;Humidity;BMP_temperature;BMP_pressure;BME280_temperature;BME280_humidity;BME280_pressure;Samples;Min_cycle;Max_cycle;Signal;HPM_P1;HPM_P2
2020/12/18 00:00:17;;;;;;;24.02;15.65;;;;;;;4.59;80.78;101537.28;5040338;28;20037;-70
2020/12/18 00:02:42;;;;;;;25.13;17.98;;;;;;;4.56;80.89;101537.19;5039677;28;20048;-70
2020/12/18 00:05:08;;;;;;;21.58;14.88;;;;;;;4.54;80.80;101539.75;5041510;28;20033;-71
2020/12/18 00:07:33;;;;;;;21.05;14.73;;;;;;;4.54;80.41;101551.94;5043312;28;20044;-70
2020/12/18 00:09:58;;;;;;;21.35;14.80;;;;;;;4.53;80.27;101542.28;5043055;28;20033;-71
2020/12/18 00:12:23;;;;;;;22.63;16.33;;;;;;;4.49;79.96;101535.19;5039506;28;20045;-70
2020/12/18 00:14:49;;;;;;;21.80;15.20;;;;;;;4.43;80.06;101535.88;5039731;28;20164;-70
2020/12/18 00:17:14;;;;;;;23.00;16.23;;;;;;;4.36;79.79;101541.72;5042144;28;20041;-70
2020/12/18 00:19:39;;;;;;;23.20;14.95;;;;;;;4.29;79.94;101542.31;5043408;28;20629;-70
2020/12/18 00:22:05;;;;;;;28.15;17.90;;;;;;;4.22;80.30;101541.25;5041757;28;20467;-70
2020/12/18 00:24:30;;;;;;;23.70;16.55;;;;;;;4.10;79.97;101531.22;5041290;28;20049;-70
2020/12/18 00:26:55;;;;;;;29.08;18.98;;;;;;;3.95;80.26;101522.81;5048964;28;20048;-70
2020/12/18 00:29:21;;;;;;;25.85;17.02;;;;;;;3.83;80.16;101536.34;5040952;28;20040;-70
2020/12/18 00:31:46;;;;;;;20.85;14.50;;;;;;;3.72;80.72;101535.03;5043981;28;20044;-70
2020/12/18 00:34:11;;;;;;;19.75;14.25;;;;;;;3.59;80.57;101535.38;5050007;28;20040;-70
2020/12/18 00:36:37;;;;;;;26.98;18.20;;;;;;;3.44;80.47;101547.03;5039421;28;20440;-70
2020/12/18 00:39:05;;;;;;;21.10;14.95;;;;;;;3.31;80.56;101544.78;5040096;28;20589;-70
2020/12/18 00:41:31;;;;;;;22.58;15.43;;;;;;;3.17;80.99;101553.75;5042817;28;20106;-70
2020/12/18 00:43:57;;;;;;;24.20;16.20;;;;;;;3.05;81.22;101552.44;5042637;28;20041;-70
2020/12/18 00:46:22;;;;;;;20.50;14.68;;;;;;;2.96;81.47;101552.06;5039374;28;20036;-70
2020/12/18 00:48:47;;;;;;;19.73;13.60;;;;;;;2.87;81.63;101553.41;5033481;28;20041;-70
2020/12/18 00:51:17;;;;;;;19.75;14.10;;;;;;;2.78;81.91;101559.13;5021503;28;20052;-70
2020/12/18 00:53:42;;;;;;;22.98;14.95;;;;;;;2.69;81.83;101562.22;5021278;28;20568;-71
2020/12/18 00:56:08;;;;;;;25.20;17.50;;;;;;;2.62;81.99;101563.69;5040648;28;20037;-70
2020/12/18 00:58:35;;;;;;;28.33;18.73;;;;;;;2.53;82.55;101565.91;5024898;28;20068;-70
2020/12/18 01:01:01;;;;;;;23.30;16.33;;;;;;;2.41;82.22;101562.75;5042134;28;20074;-70
2020/12/18 01:03:26;;;;;;;28.67;18.33;;;;;;;2.31;82.10;101563.22;5021249;28;20029;-70
2020/12/18 01:05:52;;;;;;;25.23;17.13;;;;;;;2.23;82.08;101560.25;5039221;28;20124;-70
2020/12/18 01:08:19;;;;;;;28.13;17.92;;;;;;;2.12;82.23;101567.59;5042052;28;20033;-70
2020/12/18 01:10:44;;;;;;;24.75;15.98;;;;;;;1.99;82.21;101565.25;5027556;28;20174;-70
2020/12/18 01:13:10;;;;;;;28.10;16.63;;;;;;;1.88;82.63;101556.06;5026701;28;20461;-71
2020/12/18 01:15:36;;;;;;;28.58;17.35;;;;;;;1.80;83.02;101562.63;5038577;28;20397;-71
2020/12/18 01:18:14;;;;;;;29.52;18.00;;;;;;;1.78;83.14;101564.28;5025200;28;20037;-71
2020/12/18 01:20:45;;;;;;;32.67;19.70;;;;;;;1.73;83.61;101566.69;5036783;28;20063;-70
2020/12/18 01:23:11;;;;;;;37.40;24.07;;;;;;;1.64;83.01;101577.53;5024661;28;20060;-70
2020/12/18 01:25:39;;;;;;;28.15;18.08;;;;;;;1.57;82.69;101572.84;5035916;28;20025;-70
2020/12/18 01:28:04;;;;;;;31.73;18.97;;;;;;;1.51;82.45;101575.19;5025104;28;20037;-71
2020/12/18 01:30:30;;;;;;;28.27;17.05;;;;;;;1.46;82.81;101580.16;5034565;28;20033;-71
2020/12/18 01:32:55;;;;;;;27.60;16.27;;;;;;;1.44;82.70;101573.09;5024418;28;20406;-71
2020/12/18 01:35:21;;;;;;;25.90;15.18;;;;;;;1.41;83.25;101566.03;5024527;28;20041;-70
2020/12/18 01:37:59;;;;;;;33.93;20.83;;;;;;;1.41;83.58;101567.75;5038504;28;20125;-70
2020/12/18 01:40:28;;;;;;;29.57;18.53;;;;;;;1.40;83.60;101569.47;5024489;28;20037;-71
2020/12/18 01:42:54;;;;;;;28.03;15.77;;;;;;;1.42;82.94;101573.06;5037400;28;20033;-71
2020/12/18 01:45:20;;;;;;;34.73;21.03;;;;;;;1.19;83.47;101571.06;5024753;28;20397;-70
2020/12/18 01:47:59;;;;;;;25.60;15.17;;;;;;;1.15;83.56;101562.19;5051559;28;20035;-70
2020/12/18 01:50:27;;;;;;;23.20;14.80;;;;;;;1.17;84.37;101568.38;5028025;28;20040;-71
2020/12/18 01:52:58;;;;;;;29.93;17.30;;;;;;;1.19;84.42;101566.72;5027602;28;20510;-70
2020/12/18 01:55:35;;;;;;;24.97;15.40;;;;;;;1.21;84.58;101565.09;5018179;28;20084;-70
2020/12/18 01:58:01;;;;;;;27.40;18.23;;;;;;;1.31;85.26;101569.94;5024505;28;20036;-71
2020/12/18 02:00:35;;;;;;;;;;;;;;;1.34;85.29;101565.69;5034877;28;20068;-70
2020/12/18 02:03:03;;;;;;;28.83;18.27;;;;;;;1.45;85.36;101573.19;5024128;28;19920;-71
2020/12/18 02:05:47;;;;;;;28.90;18.90;;;;;;;1.53;85.06;101576.16;5042302;28;20044;-70
2020/12/18 02:08:28;;;;;;;24.27;16.10;;;;;;;1.52;84.96;101567.47;5040859;28;20045;-70
2020/12/18 02:11:20;;;;;;;36.47;22.43;;;;;;;1.47;84.17;101574.16;5044190;28;20084;-70
2020/12/18 02:13:55;;;;;;;34.87;21.03;;;;;;;1.46;84.78;101566.28;5027457;28;20041;-71
2020/12/18 02:16:24;;;;;;;23.20;15.23;;;;;;;1.39;83.67;101569.38;5024194;28;20539;-70
2020/12/18 02:18:56;;;;;;;26.85;16.70;;;;;;;1.31;84.43;101567.34;5037262;28;20040;-70
2020/12/18 02:21:22;;;;;;;32.17;21.00;;;;;;;1.31;84.27;101567.34;5023032;28;20085;-70
2020/12/18 02:23:48;;;;;;;32.30;18.10;;;;;;;1.27;83.93;101574.91;5035807;28;20399;-70
2020/12/18 02:26:15;;;;;;;25.63;15.87;;;;;;;1.23;84.55;101572.97;5024119;28;20060;-70
2020/12/18 02:28:48;;;;;;;29.13;18.43;;;;;;;1.17;83.83;101570.06;5041772;28;20083;-70
2020/12/18 02:31:18;;;;;;;28.03;18.67;;;;;;;1.20;84.78;101567.63;5044661;28;20037;-70
2020/12/18 02:34:03;;;;;;;34.63;20.70;;;;;;;1.33;85.27;101574.31;5044130;28;20045;-70
2020/12/18 02:36:32;;;;;;;25.37;16.60;;;;;;;1.41;85.37;101572.97;5033560;28;20034;-70
2020/12/18 02:39:02;;;;;;;34.83;21.57;;;;;;;1.47;85.59;101568.06;5023598;28;20033;-70
2020/12/18 02:41:29;;;;;;;28.37;19.30;;;;;;;1.47;85.28;101565.47;5016664;28;20030;-70
2020/12/18 02:43:59;;;;;;;25.87;17.93;;;;;;;1.47;84.88;101568.06;5023522;28;20403;-70
2020/12/18 02:46:24;;;;;;;31.77;20.00;;;;;;;1.44;84.79;101565.28;5032437;28;20075;-71
2020/12/18 02:48:53;;;;;;;26.73;18.23;;;;;;;1.42;84.45;101579.97;5022980;28;20086;-70
2020/12/18 02:51:28;;;;;;;31.07;19.77;;;;;;;1.43;84.97;101576.53;5023499;28;20095;-70
2020/12/18 02:54:21;;;;;;;26.27;17.13;;;;;;;1.38;83.98;101580.63;5026794;28;20491;-70
2020/12/18 02:57:07;;;;;;;29.03;17.93;;;;;;;1.26;84.43;101587.03;5032577;28;20618;-70
2020/12/18 02:59:55;;;;;;;32.00;19.23;;;;;;;1.24;85.14;101580.84;5036261;28;20128;-70
2020/12/18 03:02:22;;;;;;;29.53;19.77;;;;;;;1.25;84.71;101582.63;5022879;28;20034;-71
2020/12/18 03:04:50;;;;;;;25.87;17.43;;;;;;;1.23;84.47;101591.16;5035554;28;20033;-70
2020/12/18 03:07:22;;;;;;;28.63;17.55;;;;;;;1.17;84.46;101583.97;5023223;28;20036;-70
2020/12/18 03:09:48;;;;;;;26.27;17.20;;;;;;;1.11;84.42;101586.28;5035037;28;20041;-70
2020/12/18 03:12:13;;;;;;;28.30;18.07;;;;;;;1.14;84.76;101588.13;5026600;28;20032;-71
2020/12/18 03:14:39;;;;;;;29.27;18.57;;;;;;;1.18;84.89;101585.78;5010170;28;20024;-71
2020/12/18 03:17:18;;;;;;;27.00;18.83;;;;;;;1.18;84.86;101587.44;5023521;28;20031;-70
2020/12/18 03:19:53;;;;;;;29.60;18.23;;;;;;;1.19;85.09;101590.13;5035649;28;20389;-70
2020/12/18 03:22:26;;;;;;;29.93;18.97;;;;;;;1.21;85.21;101587.63;5039142;28;20123;-70
2020/12/18 03:25:08;;;;;;;28.63;18.13;;;;;;;1.23;85.92;101586.88;5042420;28;20029;-70
2020/12/18 03:27:52;;;;;;;29.10;18.53;;;;;;;1.25;85.35;101587.81;5044589;28;20086;-71
2020/12/18 03:30:18;;;;;;;29.17;18.77;;;;;;;1.29;86.19;101589.78;5023445;28;20033;-70
2020/12/18 03:32:46;;;;;;;29.00;18.33;;;;;;;1.42;86.10;101591.25;5033898;28;20037;-71
2020/12/18 03:35:16;;;;;;;28.53;19.23;;;;;;;1.48;85.82;101595.84;5022997;28;20070;-71
2020/12/18 03:37:42;;;;;;;29.07;19.93;;;;;;;1.50;86.18;101597.72;5001006;28;20033;-70
2020/12/18 03:40:12;;;;;;;24.27;16.77;;;;;;;1.53;85.65;101591.75;5022684;28;20028;-70
2020/12/18 03:42:42;;;;;;;27.33;18.83;;;;;;;1.59;85.71;101593.75;5033379;28;20432;-70
2020/12/18 03:45:08;;;;;;;27.10;18.83;;;;;;;1.61;85.93;101598.22;5022578;28;20029;-71
2020/12/18 03:47:55;;;;;;;23.88;17.25;;;;;;;1.54;85.10;101596.13;5035291;28;20124;-70
2020/12/18 03:50:28;;;;;;;26.60;16.80;;;;;;;1.38;84.09;101601.44;5038856;28;20045;-70
2020/12/18 03:52:59;;;;;;;25.70;16.70;;;;;;;1.17;83.94;101593.47;5035528;28;20523;-70
2020/12/18 03:55:25;;;;;;;20.53;15.27;;;;;;;1.05;84.58;101602.47;5022282;28;20029;-70
2020/12/18 03:58:10;;;;;;;24.60;15.93;;;;;;;1.00;84.69;101610.88;5041865;28;20095;-70
2020/12/18 04:00:56;;;;;;;26.83;17.03;;;;;;;0.94;85.04;101607.94;5025321;28;20087;-71
2020/12/18 04:03:22;;;;;;;28.43;18.47;;;;;;;0.99;85.69;101609.06;5021984;28;20389;-71
2020/12/18 04:05:48;;;;;;;29.03;17.93;;;;;;;1.00;85.25;101611.75;5033988;28;20116;-70
2020/12/18 04:08:17;;;;;;;22.67;15.37;;;;;;;0.95;84.48;101607.16;5027533;28;20033;-70
2020/12/18 04:11:01;;;;;;;26.93;17.17;;;;;;;0.80;84.80;101610.75;5042915;28;20052;-71
2020/12/18 04:13:46;;;;;;;31.13;18.27;;;;;;;0.78;84.78;101609.75;5025166;28;20063;-70
2020/12/18 04:16:13;;;;;;;30.70;18.33;;;;;;;0.85;85.66;101610.97;5023123;28;20060;-70
2020/12/18 04:18:39;;;;;;;31.93;20.60;;;;;;;0.90;86.21;101609.50;5032715;28;20069;-70
2020/12/18 04:21:08;;;;;;;30.20;19.37;;;;;;;1.02;86.56;101615.31;5021831;28;20071;-70
2020/12/18 04:23:48;;;;;;;31.07;19.97;;;;;;;1.15;86.57;101615.91;5033935;28;20040;-70
2020/12/18 04:26:20;;;;;;;32.77;20.67;;;;;;;1.13;85.41;101607.13;5021973;28;20025;-70
2020/12/18 04:28:46;;;;;;;34.63;20.53;;;;;;;1.09;85.11;101606.09;5033327;28;20034;-71
2020/12/18 04:31:12;;;;;;;27.73;18.10;;;;;;;0.90;84.35;101604.31;5039365;28;20056;-71
2020/12/18 04:33:39;;;;;;;24.00;14.93;;;;;;;0.81;84.53;101609.94;5015513;28;20515;-71
2020/12/18 04:36:04;;;;;;;26.20;17.57;;;;;;;0.77;85.18;101614.91;5021532;28;20040;-71
2020/12/18 04:38:34;;;;;;;26.23;17.07;;;;;;;0.78;85.58;101608.88;5031729;28;20033;-71
2020/12/18 04:41:18;;;;;;;29.33;20.13;;;;;;;0.80;85.42;101605.53;5038310;28;20037;-71
2020/12/18 04:43:54;;;;;;;30.93;18.47;;;;;;;0.85;85.34;101606.66;5033643;28;20026;-71
2020/12/18 04:46:29;;;;;;;25.37;16.97;;;;;;;0.82;84.79;101611.72;5021533;28;20029;-71
2020/12/18 04:48:54;;;;;;;25.43;18.03;;;;;;;0.86;85.37;101611.06;5018079;28;20425;-71
2020/12/18 04:51:27;;;;;;;24.43;16.80;;;;;;;0.92;85.64;101618.28;5038104;28;20116;-71
2020/12/18 04:54:08;;;;;;;24.93;17.30;;;;;;;0.98;85.65;101612.50;5019312;28;20029;-72
2020/12/18 04:56:51;;;;;;;25.13;17.10;;;;;;;1.02;85.64;101614.41;5030982;28;20030;-71
2020/12/18 04:59:23;;;;;;;24.67;16.33;;;;;;;1.06;85.64;101621.56;5024104;28;20052;-71
2020/12/18 05:02:02;;;;;;;25.10;16.38;;;;;;;1.03;85.16;101626.63;5026231;28;20029;-72
2020/12/18 05:04:39;;;;;;;27.23;18.60;;;;;;;0.95;84.61;101625.34;5031535;28;20037;-71
2020/12/18 05:07:20;;;;;;;26.47;16.43;;;;;;;0.88;84.85;101622.41;5007704;28;20292;-71
2020/12/18 05:09:53;;;;;;;22.57;16.20;;;;;;;0.84;84.60;101633.47;5033487;28;20108;-71
2020/12/18 05:12:35;;;;;;;20.50;14.67;;;;;;;0.87;85.44;101646.63;5043628;28;20465;-71
2020/12/18 05:15:05;;;;;;;25.53;16.93;;;;;;;0.89;85.42;101638.88;5035081;28;20103;-71
2020/12/18 05:17:47;;;;;;;20.27;13.60;;;;;;;0.81;84.51;101641.13;5026472;28;20079;-71
2020/12/18 05:20:13;;;;;;;22.90;15.43;;;;;;;0.73;83.89;101639.81;5036678;28;20033;-70
2020/12/18 05:22:57;;;;;;;22.37;15.17;;;;;;;0.65;84.05;101639.44;5039204;28;20053;-69
2020/12/18 05:25:39;;;;;;;19.88;13.90;;;;;;;0.59;83.66;101633.03;5037854;28;20033;-70
2020/12/18 05:28:06;;;;;;;24.23;16.10;;;;;;;0.53;83.68;101638.81;5022402;28;20548;-70
2020/12/18 05:30:34;;;;;;;27.40;17.57;;;;;;;0.52;84.23;101638.72;5024643;28;20040;-69
2020/12/18 05:33:19;;;;;;;27.30;16.77;;;;;;;0.51;84.36;101640.41;5040191;28;20052;-69
2020/12/18 05:36:08;;;;;;;21.97;15.20;;;;;;;0.46;84.45;101641.00;5035269;28;20055;-70
2020/12/18 05:38:38;;;;;;;23.43;15.73;;;;;;;0.36;84.10;101639.63;5026136;28;20025;-69
2020/12/18 05:41:09;;;;;;;21.03;14.20;;;;;;;0.26;83.98;101646.00;5046813;28;20033;-69
2020/12/18 05:43:53;;;;;;;25.87;13.73;;;;;;;0.11;83.30;101647.81;5022244;28;20116;-69
2020/12/18 05:47:08;;;;;;;23.27;14.33;;;;;;;-0.02;84.24;101644.53;5029154;28;20044;-70
2020/12/18 05:49:39;;;;;;;22.47;15.43;;;;;;;-0.03;83.25;101650.56;5021091;28;20029;-69
2020/12/18 05:52:21;;;;;;;24.00;15.30;;;;;;;0.01;84.87;101650.72;5024132;28;20041;-69
2020/12/18 05:55:12;;;;;;;28.97;18.73;;;;;;;-0.02;84.25;101654.94;5038248;28;20049;-70
2020/12/18 05:57:57;;;;;;;24.53;16.10;;;;;;;-0.05;84.27;101664.25;5041590;28;20451;-70
2020/12/18 06:00:37;;;;;;;26.27;14.83;;;;;;;-0.08;83.94;101659.78;5031304;28;20491;-69
2020/12/18 06:03:35;;;;;;;22.00;15.23;;;;;;;-0.13;83.73;101662.91;5045020;28;20039;-70
2020/12/18 06:06:10;;;;;;;20.63;13.53;;;;;;;-0.15;83.57;101672.34;5027475;28;20025;-70
2020/12/18 06:08:40;;;;;;;29.53;17.90;;;;;;;-0.20;83.65;101666.91;5040931;28;20030;-70
2020/12/18 06:11:13;;;;;;;27.35;16.85;;;;;;;-0.21;84.30;101670.28;5043510;28;20084;-70
2020/12/18 06:13:49;;;;;;;20.60;14.07;;;;;;;-0.25;83.46;101666.63;5027543;28;20037;-69
2020/12/18 06:16:29;;;;;;;25.83;15.37;;;;;;;-0.29;83.74;101676.75;5024220;28;20052;-70
2020/12/18 06:19:06;;;;;;;21.33;13.60;;;;;;;-0.36;83.23;101674.63;5016874;28;20039;-70
2020/12/18 06:21:37;;;;;;;20.75;12.02;;;;;;;-0.41;83.79;101681.25;5027582;28;20511;-69
2020/12/18 06:24:08;;;;;;;20.53;13.43;;;;;;;-0.48;82.91;101670.53;5026149;28;20040;-70
2020/12/18 06:26:55;;;;;;;20.80;13.07;;;;;;;-0.45;83.74;101681.09;5020089;28;20036;-69
2020/12/18 06:29:49;;;;;;;25.80;15.60;;;;;;;-0.42;83.96;101685.53;5025564;28;20094;-70
2020/12/18 06:32:33;;;;;;;28.00;17.40;;;;;;;-0.41;84.18;101682.16;5041300;28;20458;-70
2020/12/18 06:35:37;;;;;;;25.03;16.07;;;;;;;-0.45;83.97;101683.69;4999930;28;20053;-69
2020/12/18 06:38:37;;;;;;;24.77;15.00;;;;;;;-0.46;83.89;101683.59;5008738;28;20127;-70
2020/12/18 06:41:34;;;;;;;27.37;17.53;;;;;;;-0.49;83.88;101693.78;5043657;28;20411;-70
2020/12/18 06:44:39;;;;;;;26.37;16.43;;;;;;;-0.50;83.60;101695.50;5026019;28;20637;-70
2020/12/18 06:47:26;;;;;;;25.33;15.87;;;;;;;-0.53;84.09;101697.88;5041554;28;20048;-70
2020/12/18 06:50:34;;;;;;;26.50;17.20;;;;;;;-0.50;83.74;101703.28;4968157;28;20118;-70
2020/12/18 06:53:16;;;;;;;23.10;14.13;;;;;;;-0.49;83.79;101706.75;5023140;28;20045;-69
2020/12/18 06:56:27;;;;;;;18.37;12.70;;;;;;;-0.54;84.17;101698.72;5025913;28;20090;-70
2020/12/18 06:59:18;;;;;;;20.30;13.17;;;;;;;-0.53;84.16;101697.88;5041629;28;20080;-70
2020/12/18 07:01:44;;;;;;;26.43;17.20;;;;;;;-0.54;83.25;101698.72;5039608;28;20033;-70
2020/12/18 07:04:21;;;;;;;25.07;16.13;;;;;;;-0.59;83.43;101696.66;5026438;28;20091;-70
2020/12/18 07:06:48;;;;;;;27.90;17.93;;;;;;;-0.65;83.15;101701.50;5043621;28;20112;-70
2020/12/18 07:09:16;;;;;;;28.70;17.73;;;;;;;-0.70;83.40;101694.34;5042629;28;20480;-70
2020/12/18 07:11:43;;;;;;;24.20;15.70;;;;;;;-0.72;83.89;101701.13;5044332;28;20067;-70
2020/12/18 07:14:17;;;;;;;24.63;15.87;;;;;;;-0.69;84.01;101700.41;5042730;28;20128;-70
2020/12/18 07:16:56;;;;;;;22.30;14.83;;;;;;;-0.67;84.16;101698.81;5018246;28;20033;-70
2020/12/18 07:19:21;;;;;;;34.83;19.67;;;;;;;-0.60;84.56;101703.56;5041153;28;20523;-70
2020/12/18 07:22:03;;;;;;;21.17;13.30;;;;;;;-0.53;85.20;101690.09;5020137;28;20037;-70
2020/12/18 07:24:28;;;;;;;20.47;13.50;;;;;;;-0.53;84.01;101697.00;5040518;28;20043;-70
2020/12/18 07:26:54;;;;;;;22.07;13.83;;;;;;;-0.52;83.86;101693.63;5040599;28;20092;-70
2020/12/18 07:29:19;;;;;;;25.77;14.83;;;;;;;-0.51;84.31;101688.50;5043392;28;20033;-70
2020/12/18 07:31:44;;;;;;;18.67;12.73;;;;;;;-0.52;83.68;101691.03;5026137;28;20060;-70
2020/12/18 07:34:10;;;;;;;25.87;15.07;;;;;;;-0.50;83.95;101692.91;5042077;28;20401;-70
2020/12/18 07:36:35;;;;;;;20.57;12.20;;;;;;;-0.48;84.13;101690.38;5037679;28;20468;-70
2020/12/18 07:39:01;;;;;;;20.30;13.03;;;;;;;-0.44;83.42;101694.94;5038034;28;20040;-70
2020/12/18 07:41:31;;;;;;;20.20;13.17;;;;;;;-0.46;83.98;101694.84;5030683;28;20029;-70
2020/12/18 07:44:07;;;;;;;20.83;13.50;;;;;;;-0.49;83.17;101699.88;5027081;28;20030;-69
2020/12/18 07:46:34;;;;;;;24.70;14.90;;;;;;;-0.45;84.29;101701.84;5040265;28;20062;-70
2020/12/18 07:49:07;;;;;;;19.03;13.27;;;;;;;-0.38;84.42;101697.00;5041161;28;20749;-70
2020/12/18 07:51:32;;;;;;;18.73;13.30;;;;;;;-0.29;84.29;101703.59;5052542;28;20037;-70
2020/12/18 07:53:58;;;;;;;23.47;14.93;;;;;;;-0.25;84.31;101695.16;5047705;28;20077;-70
2020/12/18 07:56:24;;;;;;;18.83;12.60;;;;;;;-0.17;83.52;101697.31;5031038;28;20041;-70
2020/12/18 07:59:04;;;;;;;18.13;12.33;;;;;;;-0.13;84.31;101694.06;5039943;28;20068;-70
2020/12/18 08:01:31;;;;;;;24.03;14.00;;;;;;;-0.06;84.13;101699.69;5039826;28;20091;-70
2020/12/18 08:04:23;;;;;;;18.00;12.07;;;;;;;-0.05;84.02;101696.28;5039697;28;20113;-70
2020/12/18 08:06:48;;;;;;;22.90;14.37;;;;;;;0.04;83.59;101697.59;5036122;28;20049;-72
2020/12/18 08:09:19;;;;;;;18.27;12.80;;;;;;;0.12;83.84;101701.50;5041862;28;20036;-72
2020/12/18 08:11:46;;;;;;;27.07;17.73;;;;;;;0.16;83.98;101693.97;5040273;28;20069;-73
2020/12/18 08:14:12;;;;;;;25.10;16.33;;;;;;;0.22;83.36;101696.91;5046212;28;20495;-72
2020/12/18 08:16:38;;;;;;;24.60;16.73;;;;;;;0.29;83.09;101698.13;5042488;28;20033;-72
2020/12/18 08:19:05;;;;;;;27.70;18.10;;;;;;;0.32;83.96;101694.81;5043259;28;20053;-72
2020/12/18 08:21:35;;;;;;;26.33;17.07;;;;;;;0.40;83.88;101694.41;5052693;28;20036;-72
2020/12/18 08:24:12;;;;;;;22.60;15.83;;;;;;;0.47;83.98;101692.13;5042625;28;20137;-70
2020/12/18 08:26:41;;;;;;;22.17;15.53;;;;;;;0.53;84.01;101692.47;5033253;28;20045;-70
2020/12/18 08:29:07;;;;;;;31.97;17.80;;;;;;;0.55;83.37;101694.34;5051742;28;20055;-70
2020/12/18 08:31:35;;;;;;;29.30;18.87;;;;;;;0.62;83.97;101696.41;5042885;28;20040;-72
2020/12/18 08:34:10;;;;;;;28.40;18.93;;;;;;;0.72;84.24;101692.63;5042292;28;20154;-72
2020/12/18 08:36:46;;;;;;;27.70;17.47;;;;;;;0.83;84.31;101685.38;5039379;28;20037;-72
2020/12/18 08:39:14;;;;;;;28.47;15.97;;;;;;;0.96;83.60;101692.09;5041257;28;20128;-72
2020/12/18 08:41:44;;;;;;;26.80;16.73;;;;;;;1.04;83.56;101681.25;5042878;28;20551;-72
2020/12/18 08:44:12;;;;;;;22.90;15.50;;;;;;;1.11;83.85;101674.69;5041241;28;20064;-72
2020/12/18 08:46:38;;;;;;;28.30;17.13;;;;;;;1.19;84.31;101680.28;5039435;28;20034;-72
2020/12/18 08:49:24;;;;;;;24.90;16.17;;;;;;;1.26;84.24;101688.47;5039991;28;20095;-72
2020/12/18 08:51:51;;;;;;;24.97;16.17;;;;;;;1.34;83.79;101680.13;5024816;28;20107;-72
2020/12/18 08:54:38;;;;;;;25.33;16.17;;;;;;;1.40;83.75;101685.66;5039785;28;20059;-72
2020/12/18 08:57:29;;;;;;;24.00;16.40;;;;;;;1.47;83.51;101682.53;5045167;28;20053;-72
2020/12/18 09:00:12;;;;;;;23.97;15.70;;;;;;;1.53;83.84;101688.03;5050894;28;20663;-72
2020/12/18 09:02:41;;;;;;;;;;;;;;;1.55;84.44;101683.81;5039021;28;20030;-72
2020/12/18 09:05:22;;;;;;;23.53;14.00;;;;;;;1.69;84.17;101680.13;5039998;28;20006;-72
2020/12/18 09:07:51;;;;;;;18.90;12.57;;;;;;;1.77;84.07;101682.22;5047907;28;20559;-72
2020/12/18 09:10:31;;;;;;;21.47;14.57;;;;;;;1.84;83.98;101672.19;5052070;28;20040;-72
2020/12/18 09:12:57;;;;;;;20.50;14.13;;;;;;;1.94;83.99;101678.72;5043343;28;20096;-72
2020/12/18 09:15:29;;;;;;;22.83;14.18;;;;;;;2.05;83.91;101685.31;5042356;28;20435;-72
2020/12/18 09:18:04;;;;;;;24.73;14.85;;;;;;;2.14;84.41;101680.53;5042540;28;20032;-72
2020/12/18 09:20:35;;;;;;;20.23;13.23;;;;;;;2.26;84.16;101676.72;5045494;28;20433;-72
2020/12/18 09:23:03;;;;;;;25.65;13.30;;;;;;;2.41;84.27;101678.31;5042542;28;20488;-72
2020/12/18 09:25:29;;;;;;;24.35;15.45;;;;;;;2.66;84.96;101670.69;5041995;28;20467;-72
2020/12/18 09:27:56;;;;;;;22.13;14.07;;;;;;;2.89;84.16;101669.09;5042032;28;20415;-72
2020/12/18 09:30:26;;;;;;;24.75;15.77;;;;;;;3.02;83.67;101671.41;5039343;28;20116;-72
2020/12/18 09:33:08;;;;;;;23.65;14.32;;;;;;;3.14;83.58;101676.22;5036719;28;20041;-72
2020/12/18 09:35:33;;;;;;;21.05;11.50;;;;;;;3.29;83.19;101674.28;5042368;28;20037;-72
2020/12/18 09:37:59;;;;;;;19.13;12.15;;;;;;;3.43;82.84;101675.75;5042450;28;20040;-72
2020/12/18 09:40:24;;;;;;;19.63;12.52;;;;;;;3.52;82.66;101675.22;5045827;28;20098;-72
2020/12/18 09:42:49;;;;;;;18.00;11.55;;;;;;;3.54;82.07;101673.56;5045787;28;20428;-72
2020/12/18 09:45:15;;;;;;;18.08;11.13;;;;;;;3.58;82.13;101666.75;5043822;28;20388;-72
2020/12/18 09:47:40;;;;;;;18.00;10.85;;;;;;;3.62;81.85;101663.44;5042601;28;20372;-72
2020/12/18 09:50:05;;;;;;;19.67;11.85;;;;;;;3.71;81.83;101655.97;5038863;28;20030;-72
2020/12/18 09:52:31;;;;;;;18.27;11.32;;;;;;;3.81;82.08;101662.44;5041041;28;20106;-72
2020/12/18 09:54:56;;;;;;;18.42;11.95;;;;;;;3.89;81.89;101654.06;5047556;28;20063;-72
2020/12/18 09:57:21;;;;;;;16.42;11.07;;;;;;;3.95;81.55;101650.81;5055820;28;20033;-72
2020/12/18 09:59:47;;;;;;;16.48;10.90;;;;;;;4.03;81.39;101649.38;5047102;28;20044;-72
2020/12/18 10:02:12;;;;;;;19.63;11.90;;;;;;;4.09;81.01;101656.59;5053127;28;20033;-72
2020/12/18 10:04:37;;;;;;;20.17;11.50;;;;;;;4.14;80.98;101648.09;5042238;28;20033;-72
2020/12/18 10:07:02;;;;;;;19.67;11.30;;;;;;;4.21;80.97;101650.91;5042232;28;20040;-72
2020/12/18 10:09:29;;;;;;;16.10;9.90;;;;;;;4.27;80.72;101654.66;5052261;28;20094;-72
2020/12/18 10:11:54;;;;;;;16.10;9.80;;;;;;;4.37;80.59;101646.31;5044979;28;20033;-72
2020/12/18 10:14:20;;;;;;;22.38;10.80;;;;;;;4.48;80.38;101643.19;5042785;28;20028;-72
2020/12/18 10:16:45;;;;;;;19.10;10.27;;;;;;;4.61;80.07;101640.19;5043471;28;20090;-72
2020/12/18 10:19:10;;;;;;;21.83;11.77;;;;;;;4.71;80.02;101639.69;5041830;28;20072;-72
2020/12/18 10:21:36;;;;;;;17.15;9.75;;;;;;;4.79;79.96;101639.97;5040007;28;20041;-72
2020/12/18 10:24:01;;;;;;;17.60;11.23;;;;;;;4.87;79.21;101641.09;5040852;28;20033;-72
2020/12/18 10:26:27;;;;;;;18.88;10.98;;;;;;;4.98;79.32;101641.50;5048136;28;20037;-72
2020/12/18 10:28:52;;;;;;;15.98;9.32;;;;;;;5.08;78.67;101637.47;5045187;28;20040;-72
2020/12/18 10:31:17;;;;;;;16.08;9.77;;;;;;;5.18;78.84;101635.19;5042335;28;20038;-72
2020/12/18 10:33:43;;;;;;;18.92;10.20;;;;;;;5.24;78.29;101627.56;5042525;28;20040;-72
2020/12/18 10:36:08;;;;;;;20.08;10.88;;;;;;;5.35;77.71;101627.03;5051081;28;20042;-72
2020/12/18 10:38:33;;;;;;;16.48;9.65;;;;;;;5.45;77.86;101623.88;5043042;28;20090;-72
2020/12/18 10:40:59;;;;;;;16.48;10.23;;;;;;;5.52;77.15;101620.59;5052904;28;20056;-72
2020/12/18 10:43:24;;;;;;;16.13;9.45;;;;;;;5.61;77.03;101620.00;5040801;28;20041;-72
2020/12/18 10:45:50;;;;;;;16.20;9.68;;;;;;;5.68;77.24;101622.84;5050776;28;20040;-72
2020/12/18 10:48:17;;;;;;;17.50;10.32;;;;;;;5.77;77.11;101618.75;5043334;28;20032;-72
2020/12/18 10:50:42;;;;;;;16.00;10.18;;;;;;;5.85;77.09;101614.63;5049675;28;20037;-72
2020/12/18 10:53:08;;;;;;;18.20;10.68;;;;;;;5.86;76.44;101616.41;5045174;28;20040;-72
2020/12/18 10:55:34;;;;;;;16.75;9.82;;;;;;;5.96;76.75;101617.63;5044707;28;20134;-72
2020/12/18 10:57:59;;;;;;;18.38;9.45;;;;;;;6.04;76.35;101617.00;5044660;28;20500;-72
2020/12/18 11:00:24;;;;;;;18.83;11.63;;;;;;;6.16;76.54;101616.47;5041040;28;20583;-72
2020/12/18 11:02:50;;;;;;;18.48;10.50;;;;;;;6.25;76.09;101618.47;5042525;28;20033;-72
2020/12/18 11:05:15;;;;;;;16.88;9.63;;;;;;;6.34;75.92;101616.09;5053152;28;20135;-70
2020/12/18 11:07:40;;;;;;;19.10;11.15;;;;;;;6.42;75.54;101609.34;5045141;28;20060;-70
2020/12/18 11:10:06;;;;;;;13.25;8.73;;;;;;;6.47;74.74;101606.84;5043514;28;20036;-70
2020/12/18 11:12:31;;;;;;;16.15;9.25;;;;;;;6.55;75.19;101605.34;5040690;28;20638;-70
2020/12/18 11:14:56;;;;;;;15.95;8.75;;;;;;;6.59;75.02;101613.31;5040743;28;20467;-70
2020/12/18 11:17:22;;;;;;;16.05;10.20;;;;;;;6.69;75.42;101608.34;5043984;28;20029;-70
2020/12/18 11:19:47;;;;;;;15.10;8.80;;;;;;;6.76;74.97;101611.16;5044405;28;20037;-70
2020/12/18 11:22:12;;;;;;;13.35;8.18;;;;;;;6.84;74.29;101611.38;5041035;28;20113;-70
2020/12/18 11:24:38;;;;;;;12.80;8.48;;;;;;;6.89;73.57;101615.00;5037769;28;20029;-70
2020/12/18 11:27:03;;;;;;;14.05;7.57;;;;;;;6.92;73.42;101617.72;5041601;28;20492;-70
2020/12/18 11:29:28;;;;;;;16.75;9.80;;;;;;;7.01;73.34;101606.53;5046187;28;20505;-70
2020/12/18 11:31:54;;;;;;;12.55;7.43;;;;;;;7.11;72.64;101602.44;5045918;28;20079;-70
2020/12/18 11:34:20;;;;;;;12.60;7.45;;;;;;;7.18;73.02;101599.13;5049128;28;20408;-69
2020/12/18 11:36:46;;;;;;;14.40;7.30;;;;;;;7.27;72.80;101606.31;5040268;28;20508;-69